Aviation Digital Data Service (ADDS)

Output produced by METARs form (1114 UTC 24 April 2017)
found at http://www.aviationweather.gov/adds/metars/
 
TAF TQPF 240035Z 2400/2424 11011KT 9999 SCT020 BKN040 
     PROB30 
     TEMPO 2400/2412 SHRA 
     PROB40 
     TEMPO 2412/2424 SHRA